Time;durP1;ratioP1;P1;durP2;ratioP2;P2;SDS_P1;SDS_P2;PMS_P1;PMS_P2;Temp;Humidity;BMP_temperature;BMP_pressure;BME280_temperature;BME280_humidity;BME280_pressure;Samples;Min_cycle;Max_cycle;Signal;HPM_P1;HPM_P2
2023/04/11 04:58:31;;;;;;;11.15;2.05;;;13.90;65.70;;;;;;5391974;23;20448;-76
2023/04/11 05:00:57;;;;;;;20.05;2.67;;;14.20;65.60;;;;;;4978764;28;20461;-75
2023/04/11 05:03:23;;;;;;;26.65;2.42;;;14.30;65.70;;;;;;4976289;28;20042;-71
2023/04/11 05:05:49;;;;;;;19.23;2.75;;;14.40;65.90;;;;;;4945209;28;20093;-72
2023/04/11 05:08:18;;;;;;;27.42;3.20;;;14.50;65.90;;;;;;4978422;28;20065;-79
2023/04/11 05:10:44;;;;;;;20.25;2.72;;;14.60;66.10;;;;;;4970116;28;20078;-73
2023/04/11 05:13:09;;;;;;;21.42;2.45;;;14.60;66.20;;;;;;4974542;28;20054;-75
2023/04/11 05:15:35;;;;;;;17.90;3.70;;;14.70;66.30;;;;;;4977327;28;20039;-71
2023/04/11 05:18:01;;;;;;;11.98;2.25;;;14.70;66.50;;;;;;4978491;28;20078;-83
2023/04/11 05:20:28;;;;;;;11.65;2.10;;;14.80;66.50;;;;;;4961054;28;20042;-76
2023/04/11 05:22:54;;;;;;;19.38;2.70;;;14.80;66.60;;;;;;4977490;28;20109;-74
2023/04/11 05:25:20;;;;;;;21.42;2.97;;;14.80;66.60;;;;;;4978260;28;20117;-81
2023/04/11 05:27:46;;;;;;;20.92;3.10;;;14.90;66.90;;;;;;4944891;28;20038;-73
2023/04/11 05:30:12;;;;;;;13.13;2.25;;;14.90;67.00;;;;;;4978296;28;20068;-73
2023/04/11 05:32:38;;;;;;;15.00;2.45;;;15.00;67.00;;;;;;4977446;28;20042;-73
2023/04/11 05:35:04;;;;;;;18.98;3.90;;;15.00;64.90;;;;;;4977429;28;20053;-75
2023/04/11 05:37:31;;;;;;;15.18;2.50;;;15.10;67.10;;;;;;4977429;28;20038;-74
2023/04/11 05:39:57;;;;;;;38.85;3.95;;;15.20;67.60;;;;;;4977634;28;20425;-76
2023/04/11 05:42:23;;;;;;;28.35;3.50;;;15.30;67.80;;;;;;4977374;28;20047;-75
2023/04/11 05:44:48;;;;;;;29.00;3.88;;;15.30;67.80;;;;;;4977924;28;20064;-73
2023/04/11 05:47:14;;;;;;;28.98;3.80;;;15.40;68.30;;;;;;4977287;28;20047;-75
2023/04/11 05:49:40;;;;;;;27.80;3.97;;;15.50;68.30;;;;;;4960069;28;20354;-78
2023/04/11 05:52:06;;;;;;;27.88;3.88;;;15.60;68.50;;;;;;4977079;28;20082;-78
2023/04/11 05:54:33;;;;;;;29.65;4.35;;;15.60;68.60;;;;;;4960856;28;20057;-74
2023/04/11 05:57:00;;;;;;;36.13;4.07;;;15.70;68.50;;;;;;4977805;28;20062;-74
2023/04/11 05:59:27;;;;;;;28.85;3.90;;;15.80;68.10;;;;;;4977197;28;20138;-74
2023/04/11 06:01:53;;;;;;;41.83;4.57;;;15.70;66.90;;;;;;4960399;28;20422;-76
2023/04/11 06:04:19;;;;;;;39.58;4.32;;;15.80;67.20;;;;;;4976774;28;20356;-77
2023/04/11 06:06:45;;;;;;;28.42;4.20;;;15.80;67.20;;;;;;4977333;28;20043;-75
2023/04/11 06:09:11;;;;;;;30.35;3.50;;;15.80;67.30;;;;;;4977317;28;20058;-77
2023/04/11 06:11:36;;;;;;;31.23;3.75;;;15.80;67.20;;;;;;4960325;28;20377;-78
2023/04/11 06:14:02;;;;;;;22.52;3.35;;;15.80;67.00;;;;;;4977299;28;20330;-77
2023/04/11 06:16:28;;;;;;;29.98;3.17;;;15.80;66.80;;;;;;4944228;28;20051;-77
2023/04/11 06:18:54;;;;;;;23.90;3.90;;;15.80;66.50;;;;;;4960010;28;20054;-78
2023/04/11 06:21:19;;;;;;;20.60;3.17;;;15.80;66.20;;;;;;4959515;28;20125;-78
2023/04/11 06:23:45;;;;;;;18.65;2.83;;;15.80;66.10;;;;;;4976829;28;20133;-78
2023/04/11 06:26:11;;;;;;;16.38;2.78;;;15.80;66.10;;;;;;4977034;28;20357;-76
2023/04/11 06:28:36;;;;;;;19.92;2.72;;;15.70;66.00;;;;;;4976801;28;20047;-78
2023/04/11 06:31:02;;;;;;;13.85;2.45;;;15.70;65.90;;;;;;4976521;28;20047;-78
2023/04/11 06:33:28;;;;;;;18.45;3.28;;;15.70;65.80;;;;;;4976811;28;20529;-77
2023/04/11 06:35:53;;;;;;;13.35;2.47;;;15.70;67.00;;;;;;4970542;28;20122;-79
2023/04/11 06:38:19;;;;;;;19.50;2.63;;;15.60;66.50;;;;;;4959914;28;20046;-78
2023/04/11 06:40:45;;;;;;;19.65;2.33;;;15.60;66.10;;;;;;4956772;29;20055;-81
2023/04/11 06:43:11;;;;;;;17.63;3.35;;;15.60;65.90;;;;;;4924512;29;20134;-78
2023/04/11 06:45:37;;;;;;;17.02;2.75;;;15.60;65.90;;;;;;4937396;28;20126;-80
2023/04/11 06:48:02;;;;;;;15.10;2.35;;;15.60;66.00;;;;;;4959403;28;20054;-77
2023/04/11 06:50:28;;;;;;;14.18;2.97;;;15.60;66.10;;;;;;4973568;28;20495;-78
2023/04/11 06:52:54;;;;;;;18.02;2.85;;;15.60;66.10;;;;;;4956443;28;20078;-79
2023/04/11 06:55:21;;;;;;;16.23;2.58;;;15.50;66.00;;;;;;4957772;28;20420;-80
2023/04/11 06:57:47;;;;;;;15.15;2.47;;;15.60;66.10;;;;;;4943843;28;20054;-79
2023/04/11 07:00:15;;;;;;;16.23;2.67;;;15.50;66.00;;;;;;4942772;28;20057;-80
2023/04/11 07:02:40;;;;;;;18.25;3.10;;;15.50;65.90;;;;;;4947685;28;20077;-78
2023/04/11 07:12:36;;;;;;;14.45;2.28;;;15.50;66.40;;;;;;4878227;29;20045;-84
2023/04/11 07:22:51;;;;;;;11.15;2.83;;;15.50;66.60;;;;;;4787863;29;20494;-80
2023/04/11 07:25:32;;;;;;;16.75;3.40;;;15.40;65.40;;;;;;4777008;30;20043;-81
2023/04/11 07:39:24;;;;;;;14.90;2.85;;;15.30;63.20;;;;;;4733373;30;20069;-80
2023/04/11 07:41:50;;;;;;;14.60;2.65;;;15.30;63.40;;;;;;4781467;29;20061;-78
2023/04/11 07:44:15;;;;;;;16.15;2.90;;;15.30;64.10;;;;;;4827398;29;20050;-83
2023/04/11 07:46:41;;;;;;;14.13;3.30;;;15.40;65.40;;;;;;4850524;29;20469;-75
2023/04/11 07:50:00;;;;;;;17.58;2.60;;;15.40;65.50;;;;;;4882696;29;20074;-81
2023/04/11 07:52:26;;;;;;;11.02;1.88;;;15.40;62.90;;;;;;4900829;29;20051;-82
2023/04/11 07:54:54;;;;;;;8.30;2.42;;;15.30;64.60;;;;;;4926522;28;20050;-82
2023/04/11 07:57:20;;;;;;;13.98;2.22;;;15.30;64.70;;;;;;4979772;28;20050;-83
2023/04/11 07:59:46;;;;;;;9.65;2.53;;;15.30;65.00;;;;;;4946191;28;20051;-79
2023/04/11 08:02:12;;;;;;;9.38;2.40;;;15.30;65.10;;;;;;4962799;28;20050;-80
2023/04/11 08:04:37;;;;;;;7.47;1.73;;;15.30;65.10;;;;;;4962473;28;20034;-81
2023/04/11 08:07:06;;;;;;;12.07;2.05;;;15.40;65.50;;;;;;4946549;28;20039;-81
2023/04/11 08:09:33;;;;;;;9.30;2.28;;;15.40;65.50;;;;;;4962094;28;20110;-83
2023/04/11 08:12:00;;;;;;;10.45;2.00;;;15.40;65.50;;;;;;4946468;28;20050;-80
2023/04/11 08:14:29;;;;;;;8.82;1.80;;;15.40;65.50;;;;;;4962205;28;20074;-81
2023/04/11 08:16:55;;;;;;;7.25;1.63;;;15.40;65.00;;;;;;4962558;28;20039;-82
2023/04/11 08:19:24;;;;;;;8.23;1.88;;;15.30;64.60;;;;;;4946264;28;20092;-80
2023/04/11 08:21:51;;;;;;;5.45;1.33;;;15.40;64.90;;;;;;4979446;28;20125;-78
2023/04/11 08:24:20;;;;;;;7.57;1.42;;;15.30;65.10;;;;;;4979086;28;20039;-82
2023/04/11 08:26:46;;;;;;;5.53;1.98;;;15.40;64.80;;;;;;4946208;28;20057;-78
2023/04/11 08:29:12;;;;;;;7.82;1.70;;;15.40;64.70;;;;;;4980260;28;20051;-81
2023/04/11 08:31:43;;;;;;;6.68;1.75;;;15.40;64.70;;;;;;4977979;28;20472;-82
2023/04/11 08:34:09;;;;;;;7.50;2.03;;;15.40;65.40;;;;;;4965327;28;20495;-79
2023/04/11 08:36:38;;;;;;;5.75;1.67;;;15.40;65.30;;;;;;4998087;28;20042;-81
2023/04/11 08:39:15;;;;;;;6.70;1.70;;;15.40;64.80;;;;;;4981680;28;20068;-81
2023/04/11 08:41:43;;;;;;;3.58;1.23;;;15.40;64.80;;;;;;4981254;28;20461;-82
2023/04/11 08:44:26;;;;;;;8.00;1.60;;;15.40;64.50;;;;;;4965267;28;20364;-79
2023/04/11 08:46:54;;;;;;;6.18;1.23;;;15.40;63.90;;;;;;4958934;28;20477;-82
2023/04/11 08:49:22;;;;;;;5.55;1.20;;;15.40;63.80;;;;;;4944476;28;20041;-81
2023/04/11 08:52:05;;;;;;;6.22;1.42;;;15.40;63.60;;;;;;4946051;28;20049;-83
2023/04/11 08:54:53;;;;;;;;;;;;;;;;;;;;;
2023/04/11 08:57:33;;;;;;;4.22;1.20;;;15.30;63.50;;;;;;4961683;28;20105;-80
2023/04/11 09:00:17;;;;;;;7.88;1.30;;;15.30;63.60;;;;;;4949419;29;20062;-81
2023/04/11 09:02:56;;;;;;;5.78;1.25;;;15.20;63.90;;;;;;4957152;29;20167;-82
2023/04/11 09:05:26;;;;;;;6.78;1.52;;;15.20;64.10;;;;;;4959099;29;20043;-82
2023/04/11 09:07:57;;;;;;;5.13;1.77;;;15.20;64.60;;;;;;4942351;29;20351;-81
2023/04/11 09:10:24;;;;;;;6.45;1.67;;;15.20;64.90;;;;;;4944916;28;20034;-81
2023/04/11 09:12:51;;;;;;;6.50;1.30;;;15.20;64.90;;;;;;4945320;28;20053;-77
2023/04/11 09:15:26;;;;;;;4.95;1.00;;;15.20;65.20;;;;;;4960939;28;20109;-80
2023/04/11 09:17:57;;;;;;;5.07;1.15;;;15.20;65.00;;;;;;4946341;28;20406;-79
2023/04/11 09:20:32;;;;;;;6.40;1.23;;;15.20;64.60;;;;;;4958626;28;20047;-80
2023/04/11 09:22:58;;;;;;;5.95;1.83;;;15.20;64.70;;;;;;4957634;28;20039;-80
2023/04/11 09:25:24;;;;;;;8.10;1.73;;;15.20;64.30;;;;;;4957501;29;20039;-82
2023/04/11 09:28:06;;;;;;;8.05;1.55;;;15.20;63.80;;;;;;4957931;29;20426;-79
2023/04/11 09:30:33;;;;;;;8.98;1.42;;;15.20;63.40;;;;;;4941899;29;20053;-80
2023/04/11 09:33:22;;;;;;;6.43;1.42;;;15.20;63.30;;;;;;4941494;28;20183;-79
2023/04/11 09:35:53;;;;;;;10.23;2.42;;;15.20;63.20;;;;;;4936716;29;20043;-82
2023/04/11 09:38:38;;;;;;;7.13;1.70;;;15.30;63.70;;;;;;4941605;29;20521;-78
2023/04/11 09:41:12;;;;;;;10.50;1.67;;;15.30;63.70;;;;;;4941522;29;20071;-82
2023/04/11 09:43:52;;;;;;;10.65;2.10;;;15.30;63.00;;;;;;4957363;29;20038;-82
2023/04/11 09:46:19;;;;;;;10.27;1.70;;;15.30;62.00;;;;;;4944194;28;20047;-80
2023/04/11 09:48:47;;;;;;;9.88;1.63;;;15.20;61.60;;;;;;4944311;28;20057;-82
2023/04/11 09:51:14;;;;;;;5.30;1.60;;;15.20;61.50;;;;;;4944485;28;20039;-84
2023/04/11 09:53:43;;;;;;;6.53;1.40;;;15.20;61.60;;;;;;4944671;28;20069;-84
2023/04/11 09:56:09;;;;;;;8.65;1.52;;;15.20;61.70;;;;;;4944310;28;20039;-81
2023/04/11 09:58:37;;;;;;;4.82;1.65;;;15.10;61.70;;;;;;4960245;28;20047;-81
2023/04/11 10:01:06;;;;;;;10.63;1.38;;;15.10;61.80;;;;;;4944028;28;20117;-81
2023/04/11 10:03:37;;;;;;;7.90;1.50;;;15.10;61.80;;;;;;4956775;29;20043;-80
2023/04/11 10:06:19;;;;;;;7.90;2.03;;;15.10;61.80;;;;;;4941095;29;20555;-81
2023/04/11 10:08:48;;;;;;;5.13;1.38;;;15.10;61.90;;;;;;4941914;29;20047;-80
2023/04/11 10:11:13;;;;;;;6.57;1.50;;;15.10;61.90;;;;;;4957506;29;20133;-83
2023/04/11 10:13:47;;;;;;;4.60;1.10;;;15.10;61.90;;;;;;4943819;28;20458;-84
2023/04/11 10:16:21;;;;;;;8.57;1.95;;;15.10;61.90;;;;;;4944377;28;20081;-82
2023/04/11 10:18:52;;;;;;;5.15;1.10;;;15.10;61.90;;;;;;4943685;28;20062;-81
2023/04/11 10:21:31;;;;;;;4.50;1.20;;;15.10;61.90;;;;;;4960563;28;20052;-83
2023/04/11 10:24:06;;;;;;;5.57;1.30;;;15.00;61.90;;;;;;4956690;29;20418;-81
2023/04/11 10:26:51;;;;;;;5.72;1.23;;;15.10;61.90;;;;;;4957099;28;20460;-83
2023/04/11 10:32:10;;;;;;;5.72;1.27;;;15.00;61.90;;;;;;4959183;28;20051;-81
2023/04/11 10:34:37;;;;;;;4.85;1.10;;;15.00;62.00;;;;;;4945892;29;20050;-81
2023/04/11 10:37:07;;;;;;;6.13;1.30;;;15.00;62.10;;;;;;4944640;29;20454;-84
2023/04/11 10:39:50;;;;;;;5.90;0.90;;;15.00;62.90;;;;;;4957218;29;20461;-83
2023/04/11 10:42:37;;;;;;;5.28;0.80;;;15.00;63.00;;;;;;4957177;28;20046;-83
2023/04/11 10:45:27;;;;;;;4.80;1.15;;;15.00;63.00;;;;;;4941850;28;20492;-83
2023/04/11 10:48:06;;;;;;;5.10;1.00;;;15.00;63.10;;;;;;4956373;28;20039;-83
2023/04/11 10:50:39;;;;;;;5.95;1.17;;;15.20;63.50;;;;;;4956292;29;20043;-84
2023/04/11 10:53:32;;;;;;;4.00;0.70;;;15.20;63.70;;;;;;4953206;29;20047;-84
2023/04/11 10:55:58;;;;;;;4.22;0.90;;;15.30;63.80;;;;;;4916313;29;20295;-83
2023/04/11 10:58:39;;;;;;;10.32;1.77;;;15.30;63.90;;;;;;4936933;29;20074;-83
2023/04/11 11:01:11;;;;;;;6.90;0.93;;;15.30;63.30;;;;;;4965623;28;20078;-76
2023/04/11 11:03:37;;;;;;;7.95;1.15;;;15.30;63.80;;;;;;4972661;28;20086;-79
2023/04/11 11:06:07;;;;;;;5.95;1.30;;;15.40;64.60;;;;;;4961733;28;20066;-84
2023/04/11 11:08:41;;;;;;;4.68;1.20;;;15.40;63.50;;;;;;4950856;29;20113;-83
2023/04/11 11:11:09;;;;;;;9.30;1.30;;;15.40;63.20;;;;;;4947344;28;20077;-83
2023/04/11 11:13:46;;;;;;;9.18;1.50;;;15.40;63.30;;;;;;4942707;28;20470;-84
2023/04/11 11:16:20;;;;;;;6.65;1.05;;;15.50;63.10;;;;;;4939973;28;20047;-83
2023/04/11 11:18:46;;;;;;;;;;;15.50;62.90;;;;;;4950788;28;20057;-83
2023/04/11 11:21:14;;;;;;;9.40;1.30;;;15.50;62.90;;;;;;4932277;28;19932;-84
2023/04/11 11:23:56;;;;;;;9.15;1.65;;;15.60;63.00;;;;;;4938070;28;20461;-83
2023/04/11 11:26:45;;;;;;;5.40;1.42;;;15.70;63.20;;;;;;4958521;28;20050;-84
2023/04/11 11:29:11;;;;;;;4.85;1.25;;;15.80;63.20;;;;;;4959305;28;20050;-82
2023/04/11 11:31:38;;;;;;;11.45;1.63;;;15.90;63.20;;;;;;4959416;28;20050;-83
2023/04/11 11:34:08;;;;;;;14.20;1.70;;;16.00;63.20;;;;;;4941263;28;20042;-83
2023/04/11 11:36:39;;;;;;;14.30;1.60;;;16.00;63.20;;;;;;4958626;28;20051;-83
2023/04/11 11:39:06;;;;;;;7.10;1.30;;;16.10;63.30;;;;;;4943200;28;20050;-83
2023/04/11 11:41:40;;;;;;;12.40;1.60;;;16.20;63.30;;;;;;4943618;28;20070;-85
2023/04/11 11:44:23;;;;;;;7.05;1.33;;;16.20;63.30;;;;;;4942356;28;20437;-79
2023/04/11 12:02:01;;;;;;;14.38;2.28;;;16.20;63.20;;;;;;4916366;29;20091;-80
2023/04/11 12:04:29;;;;;;;11.40;2.40;;;16.20;63.80;;;;;;4934108;29;20055;-82
2023/04/11 12:06:55;;;;;;;9.15;1.73;;;16.20;63.20;;;;;;4924078;29;20486;-79
2023/04/11 12:09:20;;;;;;;7.03;1.73;;;16.20;63.20;;;;;;4924247;29;20086;-79
2023/04/11 12:11:46;;;;;;;10.85;1.60;;;16.20;63.20;;;;;;4939692;29;20039;-79
2023/04/11 12:14:21;;;;;;;8.63;1.58;;;16.20;63.20;;;;;;4938942;29;20055;-80
2023/04/11 12:16:48;;;;;;;8.98;1.27;;;16.20;63.10;;;;;;4939554;29;20126;-82
2023/04/11 12:19:13;;;;;;;13.70;1.73;;;16.10;63.00;;;;;;4924013;29;20039;-79
2023/04/11 12:21:39;;;;;;;9.23;1.48;;;16.20;63.00;;;;;;4923463;29;20044;-80
2023/04/11 12:24:05;;;;;;;7.85;1.42;;;16.20;62.90;;;;;;4924144;29;20039;-79
2023/04/11 12:26:31;;;;;;;8.00;1.50;;;16.20;63.50;;;;;;4927426;29;20127;-80
2023/04/11 12:28:57;;;;;;;9.38;1.10;;;16.20;62.80;;;;;;4959992;29;20118;-79
2023/04/11 12:31:24;;;;;;;5.82;1.13;;;16.20;62.70;;;;;;4942999;29;20039;-78
2023/04/11 12:33:50;;;;;;;8.93;1.60;;;16.20;62.70;;;;;;4942053;29;20060;-81
2023/04/11 12:36:15;;;;;;;16.33;1.80;;;16.20;62.60;;;;;;4926275;29;20163;-81
2023/04/11 12:38:41;;;;;;;10.43;1.98;;;16.20;62.60;;;;;;4940862;29;20642;-79
2023/04/11 12:41:24;;;;;;;9.85;2.25;;;16.20;63.30;;;;;;4941919;29;20450;-80
2023/04/11 12:43:51;;;;;;;21.95;2.33;;;16.30;63.60;;;;;;4937644;29;20075;-84
2023/04/11 12:46:22;;;;;;;20.30;3.28;;;16.20;63.60;;;;;;4937554;29;20075;-82
2023/04/11 12:48:48;;;;;;;20.23;2.45;;;16.20;63.70;;;;;;4923128;29;20130;-81
2023/04/11 12:51:14;;;;;;;22.45;2.45;;;16.30;63.60;;;;;;4948050;29;20039;-76
2023/04/11 12:53:40;;;;;;;17.52;2.38;;;16.30;63.80;;;;;;4959147;29;20042;-81
2023/04/11 12:56:06;;;;;;;30.45;3.00;;;16.20;62.10;;;;;;4959196;29;20047;-81
2023/04/11 12:58:32;;;;;;;18.80;2.58;;;16.20;62.00;;;;;;4942467;29;20047;-81
2023/04/11 13:00:58;;;;;;;24.08;2.88;;;16.20;63.20;;;;;;4950097;28;20094;-77
2023/04/11 13:03:24;;;;;;;27.38;3.65;;;16.20;64.20;;;;;;4977578;28;20042;-80
2023/04/11 13:05:53;;;;;;;16.17;2.65;;;16.20;64.30;;;;;;4961657;28;20054;-80
2023/04/11 13:08:21;;;;;;;19.38;2.85;;;16.20;64.30;;;;;;4978160;28;20054;-77
2023/04/11 13:10:47;;;;;;;20.63;2.88;;;16.20;63.90;;;;;;4961071;28;20126;-81
2023/04/11 13:13:18;;;;;;;16.60;2.75;;;16.20;63.70;;;;;;4961021;28;20126;-84
2023/04/11 13:15:45;;;;;;;15.13;3.33;;;16.20;63.50;;;;;;4940784;28;20078;-79
2023/04/11 13:18:10;;;;;;;19.17;3.05;;;16.20;63.50;;;;;;4968322;28;20039;-78
2023/04/11 13:20:36;;;;;;;18.65;2.85;;;16.10;63.90;;;;;;4967081;28;20047;-78
2023/04/11 13:23:02;;;;;;;15.65;2.20;;;16.20;64.20;;;;;;4967188;28;20442;-77
2023/04/11 13:25:27;;;;;;;9.50;2.25;;;16.20;64.40;;;;;;4969577;28;20075;-77
2023/04/11 13:27:53;;;;;;;16.63;2.55;;;16.20;64.50;;;;;;4967671;28;20366;-78
2023/04/11 13:30:19;;;;;;;15.77;2.10;;;16.20;64.70;;;;;;4966983;28;20043;-79
2023/04/11 13:32:45;;;;;;;14.63;2.63;;;16.20;64.60;;;;;;4958584;29;20039;-79
2023/04/11 13:35:10;;;;;;;11.75;2.17;;;16.20;64.60;;;;;;4974959;28;20533;-77
2023/04/11 13:37:36;;;;;;;6.70;1.70;;;16.20;64.70;;;;;;4976949;28;20047;-75
2023/04/11 13:40:05;;;;;;;12.73;2.40;;;16.20;64.60;;;;;;4977197;28;20370;-77
2023/04/11 13:42:31;;;;;;;7.30;1.52;;;16.10;64.30;;;;;;4977959;28;20197;-76
2023/04/11 13:44:56;;;;;;;9.00;1.83;;;16.20;64.60;;;;;;4977878;28;20141;-78
2023/04/11 13:47:22;;;;;;;11.13;2.40;;;16.20;64.70;;;;;;4974193;28;20173;-78
2023/04/11 13:49:48;;;;;;;14.02;2.20;;;16.10;64.70;;;;;;4943259;28;20051;-79
2023/04/11 13:52:14;;;;;;;12.45;1.45;;;16.20;64.90;;;;;;4945523;28;20070;-76
2023/04/11 13:54:39;;;;;;;11.13;2.05;;;16.20;64.90;;;;;;4977535;28;20043;-74
2023/04/11 13:57:08;;;;;;;8.45;2.28;;;16.10;64.80;;;;;;4978302;28;20058;-75
2023/04/11 13:59:34;;;;;;;13.40;1.80;;;16.10;64.80;;;;;;4977775;28;20061;-76
2023/04/11 14:02:01;;;;;;;9.93;1.52;;;16.10;64.90;;;;;;4960922;28;20059;-74
2023/04/11 14:04:26;;;;;;;10.57;2.80;;;16.10;65.00;;;;;;4958121;29;20051;-78
2023/04/11 14:06:54;;;;;;;13.20;2.30;;;16.10;65.00;;;;;;4958107;29;20118;-75
2023/04/11 14:09:20;;;;;;;11.65;2.05;;;16.10;65.20;;;;;;4958305;29;20050;-73
2023/04/11 14:11:45;;;;;;;10.00;2.38;;;16.10;65.40;;;;;;4957009;29;20090;-75
2023/04/11 14:14:11;;;;;;;9.35;2.15;;;16.10;65.40;;;;;;4957850;29;20071;-76
2023/04/11 14:16:37;;;;;;;9.25;2.38;;;16.10;64.60;;;;;;4957617;29;20044;-77
2023/04/11 14:19:03;;;;;;;6.60;2.50;;;16.10;63.50;;;;;;4954473;29;20102;-78
2023/04/11 14:21:30;;;;;;;7.55;2.15;;;16.10;62.50;;;;;;4946321;29;20395;-75
2023/04/11 14:23:57;;;;;;;10.32;2.03;;;16.10;61.90;;;;;;4938591;29;20362;-76
2023/04/11 14:26:22;;;;;;;8.18;2.08;;;16.00;61.00;;;;;;4939422;29;20047;-78
2023/04/11 14:28:48;;;;;;;8.55;2.25;;;16.00;60.40;;;;;;4930653;29;20058;-75
2023/04/11 14:31:14;;;;;;;7.40;2.90;;;16.00;60.00;;;;;;4933242;29;20047;-77
2023/04/11 14:33:40;;;;;;;12.52;3.70;;;16.00;59.80;;;;;;4938371;29;20087;-77
2023/04/11 14:36:11;;;;;;;11.00;4.13;;;15.90;60.00;;;;;;4938273;29;20375;-81
2023/04/11 14:38:37;;;;;;;10.60;4.05;;;15.90;60.30;;;;;;4938325;29;20051;-76
2023/04/11 14:41:03;;;;;;;11.30;4.28;;;15.90;61.10;;;;;;4948301;29;20043;-78
2023/04/11 14:43:28;;;;;;;9.88;4.38;;;15.90;61.50;;;;;;4957405;29;20039;-79
2023/04/11 14:45:56;;;;;;;8.00;4.28;;;15.90;62.00;;;;;;4957588;29;20046;-75
2023/04/11 14:48:24;;;;;;;13.05;4.43;;;15.90;62.60;;;;;;4939956;29;20059;-76
2023/04/11 14:50:50;;;;;;;12.38;5.78;;;16.00;63.10;;;;;;4956703;29;20110;-75
2023/04/11 14:53:16;;;;;;;16.33;4.38;;;16.00;63.90;;;;;;4957255;29;20051;-80
2023/04/11 14:55:42;;;;;;;14.20;4.03;;;16.00;63.90;;;;;;4922989;29;20043;-77
2023/04/11 14:58:08;;;;;;;16.00;5.35;;;15.90;64.40;;;;;;4940188;29;20118;-77
2023/04/11 15:00:34;;;;;;;17.33;4.45;;;16.00;64.80;;;;;;4962201;28;20055;-81
2023/04/11 15:03:00;;;;;;;16.10;4.35;;;16.00;64.80;;;;;;4959142;28;20117;-77
2023/04/11 15:05:26;;;;;;;16.25;5.20;;;16.00;65.20;;;;;;4976352;28;20066;-75
2023/04/11 15:07:53;;;;;;;13.02;4.25;;;16.00;65.40;;;;;;4976364;28;20090;-75
2023/04/11 15:10:21;;;;;;;21.05;5.05;;;16.00;65.60;;;;;;4976378;28;20051;-77
2023/04/11 15:12:47;;;;;;;23.40;4.78;;;16.00;65.70;;;;;;4975931;28;20050;-78
2023/04/11 15:15:13;;;;;;;16.80;4.40;;;15.90;65.70;;;;;;4940233;28;20077;-77
2023/04/11 15:17:47;;;;;;;31.00;5.30;;;15.90;64.90;;;;;;4942473;28;20039;-80
2023/04/11 15:20:16;;;;;;;29.17;5.63;;;15.90;65.20;;;;;;4943066;28;20063;-75
2023/04/11 15:22:44;;;;;;;26.27;4.65;;;15.90;64.40;;;;;;4942992;28;20057;-80
2023/04/11 15:25:12;;;;;;;29.98;5.32;;;16.00;64.20;;;;;;4974478;28;20078;-80
2023/04/11 15:27:39;;;;;;;35.83;5.45;;;16.00;63.20;;;;;;4948559;28;20038;-81
2023/04/11 15:30:06;;;;;;;40.13;4.80;;;16.00;62.70;;;;;;4942954;28;20051;-78
2023/04/11 15:32:46;;;;;;;39.92;4.97;;;16.00;62.50;;;;;;4975798;28;20496;-84
2023/04/11 15:35:15;;;;;;;52.90;6.90;;;16.10;62.50;;;;;;4958915;28;20078;-79
2023/04/11 15:37:41;;;;;;;34.58;4.78;;;16.20;61.20;;;;;;4975986;28;20058;-80
2023/04/11 15:40:10;;;;;;;39.30;5.38;;;16.20;61.90;;;;;;4943200;28;20047;-81
2023/04/11 15:42:36;;;;;;;45.20;6.40;;;16.20;62.50;;;;;;4959181;28;20458;-80
2023/04/11 15:45:03;;;;;;;41.67;7.00;;;16.30;62.90;;;;;;4943202;28;20054;-80
2023/04/11 15:47:29;;;;;;;26.42;4.25;;;16.30;63.60;;;;;;4976081;28;20365;-80
2023/04/11 15:49:55;;;;;;;30.77;4.10;;;16.40;64.10;;;;;;4943113;28;20122;-81
2023/04/11 15:52:20;;;;;;;28.25;4.43;;;16.40;64.60;;;;;;4975733;28;20331;-80
2023/04/11 15:54:46;;;;;;;33.58;5.65;;;16.40;65.10;;;;;;4958912;28;20074;-82
2023/04/11 15:57:12;;;;;;;36.70;4.80;;;16.50;65.40;;;;;;4959006;28;20054;-80
2023/04/11 15:59:40;;;;;;;35.45;4.60;;;16.50;65.60;;;;;;4959994;28;20105;-79
2023/04/11 16:02:06;;;;;;;31.42;4.45;;;16.50;65.90;;;;;;4962391;28;20130;-79
2023/04/11 16:04:37;;;;;;;37.20;5.60;;;16.50;66.10;;;;;;4946530;28;20525;-81
2023/04/11 16:07:06;;;;;;;32.45;4.10;;;16.50;66.50;;;;;;4946566;28;20054;-80
2023/04/11 16:09:33;;;;;;;40.28;4.90;;;16.60;66.80;;;;;;4946173;28;20047;-80
2023/04/11 16:12:00;;;;;;;33.50;5.05;;;16.60;66.90;;;;;;4979396;28;20451;-79
2023/04/11 16:14:27;;;;;;;28.63;5.03;;;16.60;67.00;;;;;;4979419;28;20055;-80
2023/04/11 16:16:53;;;;;;;25.55;3.67;;;16.60;67.10;;;;;;4979535;28;20054;-78
2023/04/11 16:19:18;;;;;;;34.55;5.03;;;16.60;67.20;;;;;;4961857;28;20049;-80
2023/04/11 16:21:44;;;;;;;32.38;4.03;;;16.60;67.40;;;;;;4979609;28;20086;-78
2023/04/11 16:24:10;;;;;;;35.85;4.82;;;16.60;67.40;;;;;;4962081;28;20039;-81
2023/04/11 16:26:36;;;;;;;40.30;4.70;;;16.60;67.30;;;;;;4957115;28;20057;-79
2023/04/11 16:29:02;;;;;;;40.35;6.43;;;16.60;67.10;;;;;;4959797;28;20101;-78
2023/04/11 16:31:30;;;;;;;25.20;4.15;;;16.60;66.00;;;;;;4978974;28;20042;-77
2023/04/11 16:33:56;;;;;;;35.20;4.28;;;16.50;66.00;;;;;;4962013;28;20125;-81
2023/04/11 16:36:22;;;;;;;34.00;4.63;;;16.50;65.90;;;;;;4965159;28;20129;-80
2023/04/11 16:38:50;;;;;;;31.08;4.55;;;16.50;66.00;;;;;;4961403;28;20129;-79
2023/04/11 16:41:16;;;;;;;35.05;4.63;;;16.50;66.20;;;;;;4961695;28;20051;-78
2023/04/11 16:43:42;;;;;;;32.65;4.38;;;16.50;66.50;;;;;;4945779;28;20050;-81
2023/04/11 16:46:13;;;;;;;48.90;5.00;;;16.50;66.70;;;;;;4972990;28;20082;-78
2023/04/11 16:48:40;;;;;;;31.25;3.95;;;16.50;66.90;;;;;;4977526;28;20369;-77
2023/04/11 16:51:06;;;;;;;34.65;5.35;;;16.50;67.10;;;;;;4945843;28;20050;-82
2023/04/11 16:53:32;;;;;;;36.85;5.30;;;16.50;67.10;;;;;;4945821;28;20362;-75
2023/04/11 16:55:58;;;;;;;28.38;4.25;;;16.50;67.10;;;;;;4978812;28;20043;-81
2023/04/11 16:58:26;;;;;;;29.85;4.70;;;16.50;67.10;;;;;;4978591;28;20098;-81
2023/04/11 17:00:52;;;;;;;39.88;5.03;;;16.50;67.10;;;;;;4978511;28;20071;-76
2023/04/11 17:03:18;;;;;;;29.02;4.70;;;16.50;66.60;;;;;;4978748;28;20039;-79
2023/04/11 17:05:44;;;;;;;23.13;3.50;;;16.50;66.10;;;;;;4978361;28;20081;-81
2023/04/11 17:08:11;;;;;;;15.60;3.33;;;16.60;65.70;;;;;;4978192;28;20085;-78
2023/04/11 17:10:37;;;;;;;16.85;3.30;;;16.50;65.00;;;;;;4961694;28;20058;-77
2023/04/11 17:13:02;;;;;;;20.45;3.20;;;16.60;64.30;;;;;;4959088;29;20047;-79
2023/04/11 17:15:28;;;;;;;20.63;3.30;;;16.50;63.70;;;;;;4959128;29;20049;-79
2023/04/11 17:17:54;;;;;;;23.52;3.65;;;16.40;63.40;;;;;;4941819;29;20047;-78
2023/04/11 17:20:23;;;;;;;12.85;2.45;;;16.40;63.50;;;;;;4938665;28;20051;-81
2023/04/11 17:22:48;;;;;;;16.50;2.25;;;16.40;63.40;;;;;;4978218;28;20043;-81
2023/04/11 17:25:14;;;;;;;22.42;2.58;;;16.40;63.30;;;;;;4961324;28;20047;-80
2023/04/11 17:27:40;;;;;;;15.43;2.35;;;16.40;63.30;;;;;;4944997;28;20042;-79
2023/04/11 17:30:10;;;;;;;13.23;2.42;;;16.30;63.20;;;;;;4934700;29;20051;-79
2023/04/11 17:32:37;;;;;;;12.77;2.03;;;16.40;63.30;;;;;;4941763;29;20050;-80
2023/04/11 17:35:04;;;;;;;13.98;2.28;;;16.30;63.20;;;;;;4925631;29;20039;-79
2023/04/11 17:37:31;;;;;;;12.98;2.05;;;16.30;63.20;;;;;;4941906;29;20198;-79
2023/04/11 17:39:57;;;;;;;16.05;2.70;;;16.30;63.20;;;;;;4950313;28;20051;-79
2023/04/11 17:42:23;;;;;;;12.20;2.40;;;16.30;63.20;;;;;;4977993;28;20331;-78
2023/04/11 17:44:49;;;;;;;15.50;2.88;;;16.30;63.20;;;;;;4960682;28;20381;-80
2023/04/11 17:47:15;;;;;;;11.93;2.20;;;16.30;63.20;;;;;;4977876;28;20049;-80
2023/04/11 17:49:41;;;;;;;15.02;2.33;;;16.20;63.20;;;;;;4938696;29;20032;-79
2023/04/11 17:52:07;;;;;;;11.75;2.25;;;16.20;63.30;;;;;;4941744;29;20358;-79
2023/04/11 17:54:33;;;;;;;10.73;1.90;;;16.20;63.30;;;;;;4925200;29;20043;-79
2023/04/11 17:56:59;;;;;;;11.05;2.03;;;16.20;63.30;;;;;;4958133;29;20054;-80
2023/04/11 17:59:25;;;;;;;8.73;1.52;;;16.20;63.30;;;;;;4944882;28;20039;-80
2023/04/11 18:01:52;;;;;;;8.80;1.88;;;16.20;63.30;;;;;;4944398;28;20081;-81
2023/04/11 18:04:18;;;;;;;11.98;2.45;;;16.20;63.30;;;;;;4944531;28;20054;-81
2023/04/11 18:06:46;;;;;;;9.27;1.70;;;16.20;63.40;;;;;;4944569;28;20129;-82
2023/04/11 18:09:14;;;;;;;8.65;1.90;;;16.20;63.40;;;;;;4942314;28;20042;-81
2023/04/11 18:11:42;;;;;;;7.00;2.17;;;16.20;63.50;;;;;;4941136;29;20050;-80
2023/04/11 18:14:08;;;;;;;10.73;1.67;;;16.20;63.70;;;;;;4925072;29;20046;-80
2023/04/11 18:24:57;;;;;;;12.63;1.60;;;16.20;64.10;;;;;;4861198;29;20048;-84
2023/04/11 18:29:06;;;;;;;;;;;;;;;;;;;;;
2023/04/11 18:39:10;;;;;;;9.98;2.40;;;16.10;63.50;;;;;;4842725;29;20110;-76
2023/04/11 18:42:18;;;;;;;9.50;2.38;;;16.10;63.40;;;;;;4842657;29;20065;-81
2023/04/11 18:45:16;;;;;;;10.80;2.25;;;16.00;62.90;;;;;;4827751;29;20132;-79
2023/04/11 18:47:45;;;;;;;10.73;3.17;;;16.10;57.10;;;;;;4860664;29;20425;-74
2023/04/11 18:50:12;;;;;;;6.68;2.10;;;15.80;55.10;;;;;;4938057;29;20058;-77